sensor_id;sensor_type;location;lat;lon;timestamp;P1;durP1;ratioP1;P2;durP2;ratioP2
45128;SDS011;35512;56.312;101.728;2023-04-25T00:00:28;0.30;;;0.30;;
45128;SDS011;35512;56.312;101.728;2023-04-25T00:02:57;0.30;;;0.30;;
45128;SDS011;35512;56.312;101.728;2023-04-25T00:05:28;0.30;;;0.30;;
45128;SDS011;35512;56.312;101.728;2023-04-25T00:07:57;0.30;;;0.30;;
45128;SDS011;35512;56.312;101.728;2023-04-25T00:10:26;0.30;;;0.30;;
45128;SDS011;35512;56.312;101.728;2023-04-25T00:12:56;0.30;;;0.30;;
45128;SDS011;35512;56.312;101.728;2023-04-25T00:15:25;0.30;;;0.30;;
45128;SDS011;35512;56.312;101.728;2023-04-25T00:17:54;0.30;;;0.30;;
45128;SDS011;35512;56.312;101.728;2023-04-25T00:20:23;0.30;;;0.30;;
45128;SDS011;35512;56.312;101.728;2023-04-25T00:22:52;0.30;;;0.30;;
45128;SDS011;35512;56.312;101.728;2023-04-25T00:25:21;0.30;;;0.30;;
45128;SDS011;35512;56.312;101.728;2023-04-25T00:27:50;0.30;;;0.30;;
45128;SDS011;35512;56.312;101.728;2023-04-25T00:30:19;0.30;;;0.30;;
45128;SDS011;35512;56.312;101.728;2023-04-25T00:32:49;0.30;;;0.30;;
45128;SDS011;35512;56.312;101.728;2023-04-25T00:35:18;0.30;;;0.30;;
45128;SDS011;35512;56.312;101.728;2023-04-25T00:37:48;0.30;;;0.30;;
45128;SDS011;35512;56.312;101.728;2023-04-25T00:40:17;0.30;;;0.30;;
45128;SDS011;35512;56.312;101.728;2023-04-25T00:42:46;0.30;;;0.30;;
45128;SDS011;35512;56.312;101.728;2023-04-25T00:45:15;0.30;;;0.30;;
45128;SDS011;35512;56.312;101.728;2023-04-25T00:47:46;0.30;;;0.30;;
45128;SDS011;35512;56.312;101.728;2023-04-25T00:50:18;0.30;;;0.30;;
45128;SDS011;35512;56.312;101.728;2023-04-25T00:52:47;0.30;;;0.30;;
45128;SDS011;35512;56.312;101.728;2023-04-25T00:55:16;0.30;;;0.30;;
45128;SDS011;35512;56.312;101.728;2023-04-25T00:57:46;0.30;;;0.30;;
45128;SDS011;35512;56.312;101.728;2023-04-25T01:00:15;0.30;;;0.30;;
45128;SDS011;35512;56.312;101.728;2023-04-25T01:02:45;0.30;;;0.30;;
45128;SDS011;35512;56.312;101.728;2023-04-25T01:05:15;0.30;;;0.30;;
45128;SDS011;35512;56.312;101.728;2023-04-25T01:07:45;0.30;;;0.30;;
45128;SDS011;35512;56.312;101.728;2023-04-25T01:10:13;0.30;;;0.30;;
45128;SDS011;35512;56.312;101.728;2023-04-25T01:12:43;0.30;;;0.30;;
45128;SDS011;35512;56.312;101.728;2023-04-25T01:15:13;0.30;;;0.30;;
45128;SDS011;35512;56.312;101.728;2023-04-25T01:17:41;0.30;;;0.30;;
45128;SDS011;35512;56.312;101.728;2023-04-25T01:20:12;0.30;;;0.30;;
45128;SDS011;35512;56.312;101.728;2023-04-25T01:22:42;0.30;;;0.30;;
45128;SDS011;35512;56.312;101.728;2023-04-25T01:25:12;0.30;;;0.30;;
45128;SDS011;35512;56.312;101.728;2023-04-25T01:27:41;0.30;;;0.30;;
45128;SDS011;35512;56.312;101.728;2023-04-25T01:30:10;0.30;;;0.30;;
45128;SDS011;35512;56.312;101.728;2023-04-25T01:32:41;0.30;;;0.30;;
45128;SDS011;35512;56.312;101.728;2023-04-25T01:35:11;0.30;;;0.30;;
45128;SDS011;35512;56.312;101.728;2023-04-25T01:37:41;0.35;;;0.35;;
45128;SDS011;35512;56.312;101.728;2023-04-25T01:40:12;0.32;;;0.32;;
45128;SDS011;35512;56.312;101.728;2023-04-25T01:42:42;0.40;;;0.40;;
45128;SDS011;35512;56.312;101.728;2023-04-25T01:45:12;0.30;;;0.30;;
45128;SDS011;35512;56.312;101.728;2023-04-25T01:47:41;0.30;;;0.30;;
45128;SDS011;35512;56.312;101.728;2023-04-25T01:50:12;0.30;;;0.30;;
45128;SDS011;35512;56.312;101.728;2023-04-25T01:52:41;0.40;;;0.40;;
45128;SDS011;35512;56.312;101.728;2023-04-25T01:55:11;0.30;;;0.30;;
45128;SDS011;35512;56.312;101.728;2023-04-25T01:57:49;0.30;;;0.30;;
45128;SDS011;35512;56.312;101.728;2023-04-25T02:00:23;0.30;;;0.30;;
45128;SDS011;35512;56.312;101.728;2023-04-25T02:02:52;0.30;;;0.30;;
45128;SDS011;35512;56.312;101.728;2023-04-25T02:05:33;0.30;;;0.30;;
45128;SDS011;35512;56.312;101.728;2023-04-25T02:08:08;0.30;;;0.30;;
45128;SDS011;35512;56.312;101.728;2023-04-25T02:10:37;0.30;;;0.30;;
45128;SDS011;35512;56.312;101.728;2023-04-25T02:13:29;0.30;;;0.30;;
45128;SDS011;35512;56.312;101.728;2023-04-25T02:16:21;0.30;;;0.30;;
45128;SDS011;35512;56.312;101.728;2023-04-25T02:18:52;0.30;;;0.30;;
45128;SDS011;35512;56.312;101.728;2023-04-25T02:21:22;0.30;;;0.30;;
45128;SDS011;35512;56.312;101.728;2023-04-25T02:23:50;0.30;;;0.30;;
45128;SDS011;35512;56.312;101.728;2023-04-25T02:26:20;0.22;;;0.22;;
45128;SDS011;35512;56.312;101.728;2023-04-25T02:28:49;0.30;;;0.30;;
45128;SDS011;35512;56.312;101.728;2023-04-25T02:31:19;0.30;;;0.30;;
45128;SDS011;35512;56.312;101.728;2023-04-25T02:33:48;0.30;;;0.30;;
45128;SDS011;35512;56.312;101.728;2023-04-25T02:36:17;0.30;;;0.30;;
45128;SDS011;35512;56.312;101.728;2023-04-25T02:38:48;0.30;;;0.30;;
45128;SDS011;35512;56.312;101.728;2023-04-25T02:41:21;0.20;;;0.20;;
45128;SDS011;35512;56.312;101.728;2023-04-25T02:43:49;0.30;;;0.30;;
45128;SDS011;35512;56.312;101.728;2023-04-25T02:46:19;0.30;;;0.30;;
45128;SDS011;35512;56.312;101.728;2023-04-25T02:49:06;0.30;;;0.30;;
45128;SDS011;35512;56.312;101.728;2023-04-25T02:51:35;0.30;;;0.30;;
45128;SDS011;35512;56.312;101.728;2023-04-25T02:54:04;0.20;;;0.20;;
45128;SDS011;35512;56.312;101.728;2023-04-25T02:56:39;0.20;;;0.20;;
45128;SDS011;35512;56.312;101.728;2023-04-25T02:59:14;0.30;;;0.30;;
45128;SDS011;35512;56.312;101.728;2023-04-25T03:01:43;0.25;;;0.25;;
45128;SDS011;35512;56.312;101.728;2023-04-25T03:04:13;0.20;;;0.20;;
45128;SDS011;35512;56.312;101.728;2023-04-25T03:06:43;0.20;;;0.20;;
45128;SDS011;35512;56.312;101.728;2023-04-25T03:09:12;0.20;;;0.20;;
45128;SDS011;35512;56.312;101.728;2023-04-25T03:11:41;0.30;;;0.30;;
45128;SDS011;35512;56.312;101.728;2023-04-25T03:14:10;0.20;;;0.20;;
45128;SDS011;35512;56.312;101.728;2023-04-25T03:16:39;0.20;;;0.20;;
45128;SDS011;35512;56.312;101.728;2023-04-25T03:19:08;0.20;;;0.20;;
45128;SDS011;35512;56.312;101.728;2023-04-25T03:21:38;0.20;;;0.20;;
45128;SDS011;35512;56.312;101.728;2023-04-25T03:24:07;0.30;;;0.30;;
45128;SDS011;35512;56.312;101.728;2023-04-25T03:26:39;0.20;;;0.20;;
45128;SDS011;35512;56.312;101.728;2023-04-25T03:29:08;0.25;;;0.25;;
45128;SDS011;35512;56.312;101.728;2023-04-25T03:31:39;0.20;;;0.20;;
45128;SDS011;35512;56.312;101.728;2023-04-25T03:34:09;0.20;;;0.20;;
45128;SDS011;35512;56.312;101.728;2023-04-25T03:36:38;0.20;;;0.20;;
45128;SDS011;35512;56.312;101.728;2023-04-25T03:39:09;0.30;;;0.30;;
45128;SDS011;35512;56.312;101.728;2023-04-25T03:41:40;0.22;;;0.22;;
45128;SDS011;35512;56.312;101.728;2023-04-25T03:44:13;0.20;;;0.20;;
45128;SDS011;35512;56.312;101.728;2023-04-25T03:46:43;0.20;;;0.20;;
45128;SDS011;35512;56.312;101.728;2023-04-25T03:49:13;0.20;;;0.20;;
45128;SDS011;35512;56.312;101.728;2023-04-25T03:52:12;0.20;;;0.20;;
45128;SDS011;35512;56.312;101.728;2023-04-25T03:54:44;0.20;;;0.20;;
45128;SDS011;35512;56.312;101.728;2023-04-25T03:57:18;0.20;;;0.20;;
45128;SDS011;35512;56.312;101.728;2023-04-25T03:59:47;0.20;;;0.20;;
45128;SDS011;35512;56.312;101.728;2023-04-25T04:02:17;0.20;;;0.20;;
45128;SDS011;35512;56.312;101.728;2023-04-25T04:04:47;0.30;;;0.30;;
45128;SDS011;35512;56.312;101.728;2023-04-25T04:07:17;0.20;;;0.20;;
45128;SDS011;35512;56.312;101.728;2023-04-25T04:09:50;0.20;;;0.20;;
45128;SDS011;35512;56.312;101.728;2023-04-25T04:12:25;0.20;;;0.20;;
45128;SDS011;35512;56.312;101.728;2023-04-25T04:14:54;0.25;;;0.25;;
45128;SDS011;35512;56.312;101.728;2023-04-25T04:17:23;0.20;;;0.20;;
45128;SDS011;35512;56.312;101.728;2023-04-25T04:19:53;0.20;;;0.20;;
45128;SDS011;35512;56.312;101.728;2023-04-25T04:22:23;0.28;;;0.28;;
45128;SDS011;35512;56.312;101.728;2023-04-25T04:24:56;0.20;;;0.20;;
45128;SDS011;35512;56.312;101.728;2023-04-25T04:27:48;0.30;;;0.30;;
45128;SDS011;35512;56.312;101.728;2023-04-25T04:30:29;0.25;;;0.25;;
45128;SDS011;35512;56.312;101.728;2023-04-25T04:33:02;0.20;;;0.20;;
45128;SDS011;35512;56.312;101.728;2023-04-25T04:35:34;0.20;;;0.20;;
45128;SDS011;35512;56.312;101.728;2023-04-25T04:38:03;0.30;;;0.30;;
45128;SDS011;35512;56.312;101.728;2023-04-25T04:40:34;0.20;;;0.20;;
45128;SDS011;35512;56.312;101.728;2023-04-25T04:43:24;0.20;;;0.20;;
45128;SDS011;35512;56.312;101.728;2023-04-25T04:46:02;0.20;;;0.20;;
45128;SDS011;35512;56.312;101.728;2023-04-25T04:48:41;0.30;;;0.30;;
45128;SDS011;35512;56.312;101.728;2023-04-25T04:51:29;0.20;;;0.20;;
45128;SDS011;35512;56.312;101.728;2023-04-25T04:54:28;0.20;;;0.20;;
45128;SDS011;35512;56.312;101.728;2023-04-25T04:57:14;0.28;;;0.28;;
45128;SDS011;35512;56.312;101.728;2023-04-25T04:59:58;0.20;;;0.20;;
45128;SDS011;35512;56.312;101.728;2023-04-25T05:02:47;0.15;;;0.15;;
45128;SDS011;35512;56.312;101.728;2023-04-25T05:05:29;0.25;;;0.25;;
45128;SDS011;35512;56.312;101.728;2023-04-25T05:08:19;0.20;;;0.20;;
45128;SDS011;35512;56.312;101.728;2023-04-25T05:11:09;0.20;;;0.20;;
45128;SDS011;35512;56.312;101.728;2023-04-25T05:13:58;0.20;;;0.20;;
45128;SDS011;35512;56.312;101.728;2023-04-25T05:16:46;0.20;;;0.20;;
45128;SDS011;35512;56.312;101.728;2023-04-25T05:19:38;0.20;;;0.20;;
45128;SDS011;35512;56.312;101.728;2023-04-25T05:22:32;0.20;;;0.20;;
45128;SDS011;35512;56.312;101.728;2023-04-25T05:25:14;0.20;;;0.20;;
45128;SDS011;35512;56.312;101.728;2023-04-25T05:28:03;0.20;;;0.20;;
45128;SDS011;35512;56.312;101.728;2023-04-25T05:30:50;0.20;;;0.20;;
45128;SDS011;35512;56.312;101.728;2023-04-25T05:33:26;0.20;;;0.20;;
45128;SDS011;35512;56.312;101.728;2023-04-25T05:35:55;0.20;;;0.20;;
45128;SDS011;35512;56.312;101.728;2023-04-25T05:38:25;0.20;;;0.20;;
45128;SDS011;35512;56.312;101.728;2023-04-25T05:41:30;0.10;;;0.10;;
45128;SDS011;35512;56.312;101.728;2023-04-25T05:44:12;0.20;;;0.20;;
45128;SDS011;35512;56.312;101.728;2023-04-25T05:46:49;0.20;;;0.20;;
45128;SDS011;35512;56.312;101.728;2023-04-25T05:52:16;0.10;;;0.10;;
45128;SDS011;35512;56.312;101.728;2023-04-25T05:54:56;0.20;;;0.20;;
45128;SDS011;35512;56.312;101.728;2023-04-25T05:57:26;0.20;;;0.20;;
45128;SDS011;35512;56.312;101.728;2023-04-25T05:59:56;0.20;;;0.20;;
45128;SDS011;35512;56.312;101.728;2023-04-25T06:02:41;0.20;;;0.20;;
45128;SDS011;35512;56.312;101.728;2023-04-25T06:05:14;0.20;;;0.20;;
45128;SDS011;35512;56.312;101.728;2023-04-25T06:07:46;0.10;;;0.10;;
45128;SDS011;35512;56.312;101.728;2023-04-25T06:10:15;0.20;;;0.20;;
45128;SDS011;35512;56.312;101.728;2023-04-25T06:12:46;0.20;;;0.20;;
45128;SDS011;35512;56.312;101.728;2023-04-25T06:15:17;0.20;;;0.20;;
45128;SDS011;35512;56.312;101.728;2023-04-25T06:17:49;0.20;;;0.20;;
45128;SDS011;35512;56.312;101.728;2023-04-25T06:20:18;0.20;;;0.20;;
45128;SDS011;35512;56.312;101.728;2023-04-25T06:22:51;0.20;;;0.20;;
45128;SDS011;35512;56.312;101.728;2023-04-25T06:25:28;0.20;;;0.20;;
45128;SDS011;35512;56.312;101.728;2023-04-25T06:27:57;0.28;;;0.28;;
45128;SDS011;35512;56.312;101.728;2023-04-25T06:30:26;0.20;;;0.20;;
45128;SDS011;35512;56.312;101.728;2023-04-25T06:33:03;0.30;;;0.30;;
45128;SDS011;35512;56.312;101.728;2023-04-25T06:35:32;0.30;;;0.30;;
45128;SDS011;35512;56.312;101.728;2023-04-25T06:38:02;0.30;;;0.30;;
45128;SDS011;35512;56.312;101.728;2023-04-25T06:40:32;0.30;;;0.30;;
45128;SDS011;35512;56.312;101.728;2023-04-25T06:43:01;0.30;;;0.30;;
45128;SDS011;35512;56.312;101.728;2023-04-25T06:45:54;0.20;;;0.20;;
45128;SDS011;35512;56.312;101.728;2023-04-25T06:48:26;0.20;;;0.20;;
45128;SDS011;35512;56.312;101.728;2023-04-25T06:50:58;0.20;;;0.20;;
45128;SDS011;35512;56.312;101.728;2023-04-25T06:53:28;0.30;;;0.30;;
45128;SDS011;35512;56.312;101.728;2023-04-25T06:56:03;0.30;;;0.30;;
45128;SDS011;35512;56.312;101.728;2023-04-25T06:58:45;0.30;;;0.30;;
45128;SDS011;35512;56.312;101.728;2023-04-25T07:01:27;0.22;;;0.22;;
45128;SDS011;35512;56.312;101.728;2023-04-25T07:03:58;0.20;;;0.20;;
45128;SDS011;35512;56.312;101.728;2023-04-25T07:06:30;0.20;;;0.20;;
45128;SDS011;35512;56.312;101.728;2023-04-25T07:08:59;0.20;;;0.20;;
45128;SDS011;35512;56.312;101.728;2023-04-25T07:11:29;0.30;;;0.30;;
45128;SDS011;35512;56.312;101.728;2023-04-25T07:13:58;0.20;;;0.20;;
45128;SDS011;35512;56.312;101.728;2023-04-25T07:16:28;0.30;;;0.30;;
45128;SDS011;35512;56.312;101.728;2023-04-25T07:18:58;0.30;;;0.30;;
45128;SDS011;35512;56.312;101.728;2023-04-25T07:21:30;0.30;;;0.30;;
45128;SDS011;35512;56.312;101.728;2023-04-25T07:24:02;0.30;;;0.30;;
45128;SDS011;35512;56.312;101.728;2023-04-25T07:26:34;0.28;;;0.28;;
45128;SDS011;35512;56.312;101.728;2023-04-25T07:29:16;0.30;;;0.30;;
45128;SDS011;35512;56.312;101.728;2023-04-25T07:31:45;0.30;;;0.30;;
45128;SDS011;35512;56.312;101.728;2023-04-25T07:34:14;0.30;;;0.30;;
45128;SDS011;35512;56.312;101.728;2023-04-25T07:36:44;0.30;;;0.30;;
45128;SDS011;35512;56.312;101.728;2023-04-25T07:39:14;0.30;;;0.30;;
45128;SDS011;35512;56.312;101.728;2023-04-25T07:41:44;0.30;;;0.30;;
45128;SDS011;35512;56.312;101.728;2023-04-25T07:44:19;0.30;;;0.30;;
45128;SDS011;35512;56.312;101.728;2023-04-25T07:46:49;0.30;;;0.30;;
45128;SDS011;35512;56.312;101.728;2023-04-25T07:49:18;0.30;;;0.30;;
45128;SDS011;35512;56.312;101.728;2023-04-25T07:51:49;0.30;;;0.30;;
45128;SDS011;35512;56.312;101.728;2023-04-25T07:54:21;0.30;;;0.30;;
45128;SDS011;35512;56.312;101.728;2023-04-25T07:57:00;0.30;;;0.30;;
45128;SDS011;35512;56.312;101.728;2023-04-25T07:59:31;0.30;;;0.30;;
45128;SDS011;35512;56.312;101.728;2023-04-25T08:02:03;0.30;;;0.30;;
45128;SDS011;35512;56.312;101.728;2023-04-25T08:04:33;0.30;;;0.30;;
45128;SDS011;35512;56.312;101.728;2023-04-25T08:07:07;0.30;;;0.30;;
45128;SDS011;35512;56.312;101.728;2023-04-25T08:09:48;0.30;;;0.30;;
45128;SDS011;35512;56.312;101.728;2023-04-25T08:12:24;0.32;;;0.32;;
45128;SDS011;35512;56.312;101.728;2023-04-25T08:14:53;0.30;;;0.30;;
45128;SDS011;35512;56.312;101.728;2023-04-25T08:17:25;0.30;;;0.30;;
45128;SDS011;35512;56.312;101.728;2023-04-25T08:19:54;0.30;;;0.30;;
45128;SDS011;35512;56.312;101.728;2023-04-25T08:22:31;0.30;;;0.30;;
45128;SDS011;35512;56.312;101.728;2023-04-25T08:25:23;0.30;;;0.30;;
45128;SDS011;35512;56.312;101.728;2023-04-25T08:27:52;0.30;;;0.30;;
45128;SDS011;35512;56.312;101.728;2023-04-25T08:30:22;0.30;;;0.30;;
45128;SDS011;35512;56.312;101.728;2023-04-25T08:32:51;0.30;;;0.30;;
45128;SDS011;35512;56.312;101.728;2023-04-25T08:35:45;0.40;;;0.40;;
45128;SDS011;35512;56.312;101.728;2023-04-25T08:38:15;0.30;;;0.30;;
45128;SDS011;35512;56.312;101.728;2023-04-25T08:40:48;0.30;;;0.30;;
45128;SDS011;35512;56.312;101.728;2023-04-25T08:43:23;0.30;;;0.30;;
45128;SDS011;35512;56.312;101.728;2023-04-25T08:45:54;0.30;;;0.30;;
45128;SDS011;35512;56.312;101.728;2023-04-25T08:48:46;0.30;;;0.30;;
45128;SDS011;35512;56.312;101.728;2023-04-25T08:51:23;0.30;;;0.30;;
45128;SDS011;35512;56.312;101.728;2023-04-25T08:53:56;0.30;;;0.30;;
45128;SDS011;35512;56.312;101.728;2023-04-25T08:57:01;0.30;;;0.30;;
45128;SDS011;35512;56.312;101.728;2023-04-25T08:59:32;0.30;;;0.30;;
45128;SDS011;35512;56.312;101.728;2023-04-25T09:02:06;0.32;;;0.32;;
45128;SDS011;35512;56.312;101.728;2023-04-25T09:04:38;0.30;;;0.30;;
45128;SDS011;35512;56.312;101.728;2023-04-25T09:07:07;0.30;;;0.30;;
45128;SDS011;35512;56.312;101.728;2023-04-25T09:09:36;0.30;;;0.30;;
45128;SDS011;35512;56.312;101.728;2023-04-25T09:12:05;0.30;;;0.30;;
45128;SDS011;35512;56.312;101.728;2023-04-25T09:14:35;0.30;;;0.30;;
45128;SDS011;35512;56.312;101.728;2023-04-25T09:17:23;0.30;;;0.30;;
45128;SDS011;35512;56.312;101.728;2023-04-25T09:19:55;0.30;;;0.30;;
45128;SDS011;35512;56.312;101.728;2023-04-25T09:22:34;0.30;;;0.30;;
45128;SDS011;35512;56.312;101.728;2023-04-25T09:25:08;0.30;;;0.30;;
45128;SDS011;35512;56.312;101.728;2023-04-25T09:30:33;0.30;;;0.30;;
45128;SDS011;35512;56.312;101.728;2023-04-25T09:33:10;0.30;;;0.30;;
45128;SDS011;35512;56.312;101.728;2023-04-25T09:35:46;0.30;;;0.30;;
45128;SDS011;35512;56.312;101.728;2023-04-25T09:38:28;0.30;;;0.30;;
45128;SDS011;35512;56.312;101.728;2023-04-25T09:41:10;0.30;;;0.30;;
45128;SDS011;35512;56.312;101.728;2023-04-25T09:43:45;0.30;;;0.30;;
45128;SDS011;35512;56.312;101.728;2023-04-25T09:46:15;0.30;;;0.30;;
45128;SDS011;35512;56.312;101.728;2023-04-25T09:48:52;0.30;;;0.30;;
45128;SDS011;35512;56.312;101.728;2023-04-25T09:51:32;0.30;;;0.30;;
45128;SDS011;35512;56.312;101.728;2023-04-25T09:54:02;0.30;;;0.30;;
45128;SDS011;35512;56.312;101.728;2023-04-25T09:56:46;0.30;;;0.30;;
45128;SDS011;35512;56.312;101.728;2023-04-25T09:59:19;0.30;;;0.30;;
45128;SDS011;35512;56.312;101.728;2023-04-25T10:01:50;0.30;;;0.30;;
45128;SDS011;35512;56.312;101.728;2023-04-25T10:04:31;0.30;;;0.30;;
45128;SDS011;35512;56.312;101.728;2023-04-25T10:07:07;0.30;;;0.30;;
45128;SDS011;35512;56.312;101.728;2023-04-25T10:09:37;0.30;;;0.30;;
45128;SDS011;35512;56.312;101.728;2023-04-25T10:12:08;0.30;;;0.30;;
45128;SDS011;35512;56.312;101.728;2023-04-25T10:14:37;0.30;;;0.30;;
45128;SDS011;35512;56.312;101.728;2023-04-25T10:17:07;0.30;;;0.30;;
45128;SDS011;35512;56.312;101.728;2023-04-25T10:19:38;0.30;;;0.30;;
45128;SDS011;35512;56.312;101.728;2023-04-25T10:22:11;0.30;;;0.30;;
45128;SDS011;35512;56.312;101.728;2023-04-25T10:24:46;0.30;;;0.30;;
45128;SDS011;35512;56.312;101.728;2023-04-25T10:27:15;0.30;;;0.30;;
45128;SDS011;35512;56.312;101.728;2023-04-25T10:29:44;0.30;;;0.30;;
45128;SDS011;35512;56.312;101.728;2023-04-25T10:32:30;0.30;;;0.30;;
45128;SDS011;35512;56.312;101.728;2023-04-25T10:35:28;0.30;;;0.30;;
45128;SDS011;35512;56.312;101.728;2023-04-25T10:37:59;0.30;;;0.30;;
45128;SDS011;35512;56.312;101.728;2023-04-25T10:40:33;0.30;;;0.30;;
45128;SDS011;35512;56.312;101.728;2023-04-25T10:46:18;0.30;;;0.30;;
45128;SDS011;35512;56.312;101.728;2023-04-25T10:48:54;0.30;;;0.30;;
45128;SDS011;35512;56.312;101.728;2023-04-25T10:54:21;0.30;;;0.30;;
45128;SDS011;35512;56.312;101.728;2023-04-25T10:56:53;0.30;;;0.30;;
45128;SDS011;35512;56.312;101.728;2023-04-25T10:59:23;0.30;;;0.30;;
45128;SDS011;35512;56.312;101.728;2023-04-25T11:01:54;0.30;;;0.30;;
45128;SDS011;35512;56.312;101.728;2023-04-25T11:04:26;0.30;;;0.30;;
45128;SDS011;35512;56.312;101.728;2023-04-25T11:09:38;0.30;;;0.30;;
45128;SDS011;35512;56.312;101.728;2023-04-25T11:12:08;0.30;;;0.30;;
45128;SDS011;35512;56.312;101.728;2023-04-25T11:14:39;0.30;;;0.30;;
45128;SDS011;35512;56.312;101.728;2023-04-25T11:17:08;0.30;;;0.30;;
45128;SDS011;35512;56.312;101.728;2023-04-25T11:19:40;0.30;;;0.30;;
45128;SDS011;35512;56.312;101.728;2023-04-25T11:22:09;0.30;;;0.30;;
45128;SDS011;35512;56.312;101.728;2023-04-25T11:24:39;0.30;;;0.30;;
45128;SDS011;35512;56.312;101.728;2023-04-25T11:27:08;0.30;;;0.30;;
45128;SDS011;35512;56.312;101.728;2023-04-25T11:29:37;0.30;;;0.30;;
45128;SDS011;35512;56.312;101.728;2023-04-25T11:32:06;0.30;;;0.30;;
45128;SDS011;35512;56.312;101.728;2023-04-25T11:34:35;0.30;;;0.30;;
45128;SDS011;35512;56.312;101.728;2023-04-25T11:37:05;0.30;;;0.30;;
45128;SDS011;35512;56.312;101.728;2023-04-25T11:39:34;0.30;;;0.30;;
45128;SDS011;35512;56.312;101.728;2023-04-25T11:42:03;0.30;;;0.30;;
45128;SDS011;35512;56.312;101.728;2023-04-25T11:44:40;0.30;;;0.30;;
45128;SDS011;35512;56.312;101.728;2023-04-25T11:47:09;0.30;;;0.30;;
45128;SDS011;35512;56.312;101.728;2023-04-25T11:49:38;0.30;;;0.30;;
45128;SDS011;35512;56.312;101.728;2023-04-25T11:52:07;0.30;;;0.30;;
45128;SDS011;35512;56.312;101.728;2023-04-25T11:54:36;0.30;;;0.30;;
45128;SDS011;35512;56.312;101.728;2023-04-25T11:57:06;0.30;;;0.30;;
45128;SDS011;35512;56.312;101.728;2023-04-25T11:59:35;0.30;;;0.30;;
45128;SDS011;35512;56.312;101.728;2023-04-25T12:02:04;0.30;;;0.30;;
45128;SDS011;35512;56.312;101.728;2023-04-25T12:04:35;0.30;;;0.30;;
45128;SDS011;35512;56.312;101.728;2023-04-25T12:07:05;0.30;;;0.30;;
45128;SDS011;35512;56.312;101.728;2023-04-25T12:09:38;0.30;;;0.30;;
45128;SDS011;35512;56.312;101.728;2023-04-25T12:12:09;0.30;;;0.30;;
45128;SDS011;35512;56.312;101.728;2023-04-25T12:14:38;0.30;;;0.30;;
45128;SDS011;35512;56.312;101.728;2023-04-25T12:17:07;0.30;;;0.30;;
45128;SDS011;35512;56.312;101.728;2023-04-25T12:19:38;0.30;;;0.30;;
45128;SDS011;35512;56.312;101.728;2023-04-25T12:22:29;0.32;;;0.32;;
45128;SDS011;35512;56.312;101.728;2023-04-25T12:25:00;0.30;;;0.30;;
45128;SDS011;35512;56.312;101.728;2023-04-25T12:27:33;0.30;;;0.30;;
45128;SDS011;35512;56.312;101.728;2023-04-25T12:30:02;0.30;;;0.30;;
45128;SDS011;35512;56.312;101.728;2023-04-25T12:32:34;0.30;;;0.30;;
45128;SDS011;35512;56.312;101.728;2023-04-25T12:35:05;0.30;;;0.30;;
45128;SDS011;35512;56.312;101.728;2023-04-25T12:37:34;0.30;;;0.30;;
45128;SDS011;35512;56.312;101.728;2023-04-25T12:40:03;0.30;;;0.30;;
45128;SDS011;35512;56.312;101.728;2023-04-25T12:42:34;0.30;;;0.30;;
45128;SDS011;35512;56.312;101.728;2023-04-25T12:45:03;0.30;;;0.30;;
45128;SDS011;35512;56.312;101.728;2023-04-25T12:47:32;0.30;;;0.30;;
45128;SDS011;35512;56.312;101.728;2023-04-25T12:50:03;0.30;;;0.30;;
45128;SDS011;35512;56.312;101.728;2023-04-25T12:52:37;0.30;;;0.30;;
45128;SDS011;35512;56.312;101.728;2023-04-25T12:55:06;0.30;;;0.30;;
45128;SDS011;35512;56.312;101.728;2023-04-25T12:57:35;0.30;;;0.30;;
45128;SDS011;35512;56.312;101.728;2023-04-25T13:00:05;0.30;;;0.30;;
45128;SDS011;35512;56.312;101.728;2023-04-25T13:02:37;0.30;;;0.30;;
45128;SDS011;35512;56.312;101.728;2023-04-25T13:05:07;0.30;;;0.30;;
45128;SDS011;35512;56.312;101.728;2023-04-25T13:07:37;0.30;;;0.30;;
45128;SDS011;35512;56.312;101.728;2023-04-25T13:10:06;0.20;;;0.20;;
45128;SDS011;35512;56.312;101.728;2023-04-25T13:12:35;0.30;;;0.30;;
45128;SDS011;35512;56.312;101.728;2023-04-25T13:15:04;0.30;;;0.30;;
45128;SDS011;35512;56.312;101.728;2023-04-25T13:17:35;0.30;;;0.30;;
45128;SDS011;35512;56.312;101.728;2023-04-25T13:20:04;0.30;;;0.30;;
45128;SDS011;35512;56.312;101.728;2023-04-25T13:22:37;0.30;;;0.30;;
45128;SDS011;35512;56.312;101.728;2023-04-25T13:25:07;0.30;;;0.30;;
45128;SDS011;35512;56.312;101.728;2023-04-25T13:27:37;0.30;;;0.30;;
45128;SDS011;35512;56.312;101.728;2023-04-25T13:30:07;0.30;;;0.30;;
45128;SDS011;35512;56.312;101.728;2023-04-25T13:32:37;0.30;;;0.30;;
45128;SDS011;35512;56.312;101.728;2023-04-25T13:35:10;0.30;;;0.30;;
45128;SDS011;35512;56.312;101.728;2023-04-25T13:37:40;0.30;;;0.30;;
45128;SDS011;35512;56.312;101.728;2023-04-25T13:40:10;0.30;;;0.30;;
45128;SDS011;35512;56.312;101.728;2023-04-25T13:42:39;0.30;;;0.30;;
45128;SDS011;35512;56.312;101.728;2023-04-25T13:45:09;0.30;;;0.30;;
45128;SDS011;35512;56.312;101.728;2023-04-25T13:47:38;0.30;;;0.30;;
45128;SDS011;35512;56.312;101.728;2023-04-25T13:50:07;0.30;;;0.30;;
45128;SDS011;35512;56.312;101.728;2023-04-25T13:52:37;0.30;;;0.30;;
45128;SDS011;35512;56.312;101.728;2023-04-25T13:55:06;0.30;;;0.30;;
45128;SDS011;35512;56.312;101.728;2023-04-25T13:57:36;0.30;;;0.30;;
45128;SDS011;35512;56.312;101.728;2023-04-25T14:00:08;0.30;;;0.30;;
45128;SDS011;35512;56.312;101.728;2023-04-25T14:02:39;0.30;;;0.30;;
45128;SDS011;35512;56.312;101.728;2023-04-25T14:05:08;0.30;;;0.30;;
45128;SDS011;35512;56.312;101.728;2023-04-25T14:07:37;0.30;;;0.30;;
45128;SDS011;35512;56.312;101.728;2023-04-25T14:10:06;0.30;;;0.30;;
45128;SDS011;35512;56.312;101.728;2023-04-25T14:12:35;0.30;;;0.30;;
45128;SDS011;35512;56.312;101.728;2023-04-25T14:15:04;0.30;;;0.30;;
45128;SDS011;35512;56.312;101.728;2023-04-25T14:17:33;0.30;;;0.30;;
45128;SDS011;35512;56.312;101.728;2023-04-25T14:20:03;0.30;;;0.30;;
45128;SDS011;35512;56.312;101.728;2023-04-25T14:22:34;0.30;;;0.30;;
45128;SDS011;35512;56.312;101.728;2023-04-25T14:25:03;0.30;;;0.30;;
45128;SDS011;35512;56.312;101.728;2023-04-25T14:27:32;0.30;;;0.30;;
45128;SDS011;35512;56.312;101.728;2023-04-25T14:30:01;0.30;;;0.30;;
45128;SDS011;35512;56.312;101.728;2023-04-25T14:32:30;0.30;;;0.30;;
45128;SDS011;35512;56.312;101.728;2023-04-25T14:35:00;0.30;;;0.30;;
45128;SDS011;35512;56.312;101.728;2023-04-25T14:37:30;0.30;;;0.30;;
45128;SDS011;35512;56.312;101.728;2023-04-25T14:39:59;0.30;;;0.30;;
45128;SDS011;35512;56.312;101.728;2023-04-25T14:42:30;0.30;;;0.30;;
45128;SDS011;35512;56.312;101.728;2023-04-25T14:45:00;0.30;;;0.30;;
45128;SDS011;35512;56.312;101.728;2023-04-25T14:47:32;0.30;;;0.30;;
45128;SDS011;35512;56.312;101.728;2023-04-25T14:50:02;0.30;;;0.30;;
45128;SDS011;35512;56.312;101.728;2023-04-25T14:52:32;0.30;;;0.30;;
45128;SDS011;35512;56.312;101.728;2023-04-25T14:55:01;0.30;;;0.30;;
45128;SDS011;35512;56.312;101.728;2023-04-25T14:57:33;0.30;;;0.30;;
45128;SDS011;35512;56.312;101.728;2023-04-25T15:00:03;0.40;;;0.40;;
45128;SDS011;35512;56.312;101.728;2023-04-25T15:02:36;0.30;;;0.30;;
45128;SDS011;35512;56.312;101.728;2023-04-25T15:05:05;0.30;;;0.30;;
45128;SDS011;35512;56.312;101.728;2023-04-25T15:07:35;0.30;;;0.30;;